createdAt,value
2023-05-05T00:01:39.386Z,56.37
2023-05-05T00:04:11.825Z,56.25
2023-05-05T00:06:44.266Z,56.29
2023-05-05T00:09:16.649Z,56.39
2023-05-05T00:11:49.086Z,56.24
2023-05-05T00:14:21.458Z,56.50
2023-05-05T00:16:53.912Z,56.16
2023-05-05T00:19:26.291Z,55.78
2023-05-05T00:21:58.603Z,56.23
2023-05-05T00:24:30.984Z,56.05
2023-05-05T00:27:04.018Z,56.32
2023-05-05T00:29:36.442Z,56.52
2023-05-05T00:32:09.362Z,55.89
2023-05-05T00:34:41.776Z,56.09
2023-05-05T00:37:14.219Z,56.03
2023-05-05T00:39:46.556Z,56.01
2023-05-05T00:42:19.196Z,55.75
2023-05-05T00:44:51.530Z,56.30
2023-05-05T00:47:24.183Z,56.33
2023-05-05T00:49:56.684Z,56.39
2023-05-05T00:52:29.301Z,56.58
2023-05-05T00:55:02.292Z,56.44
2023-05-05T00:57:35.997Z,56.22
2023-05-05T01:00:10.004Z,56.18
2023-05-05T01:02:42.783Z,55.91
2023-05-05T01:05:17.608Z,56.48
2023-05-05T01:08:02.993Z,55.72
2023-05-05T01:10:41.068Z,56.75
2023-05-05T01:13:37.576Z,56.08
2023-05-05T01:16:18.527Z,55.93
2023-05-05T01:19:05.261Z,56.01
2023-05-05T01:21:42.541Z,55.99
2023-05-05T01:24:21.089Z,56.66
2023-05-05T01:27:09.404Z,56.60
2023-05-05T01:30:20.646Z,56.73
2023-05-05T01:33:00.900Z,56.49
2023-05-05T01:35:56.735Z,56.38
2023-05-05T01:38:38.065Z,56.64
2023-05-05T01:41:18.331Z,56.57
2023-05-05T01:43:53.352Z,56.40
2023-05-05T01:46:27.131Z,56.29
2023-05-05T01:49:00.057Z,56.30
2023-05-05T01:51:33.132Z,55.92
2023-05-05T01:54:10.416Z,56.30
2023-05-05T01:56:43.976Z,56.66
2023-05-05T01:59:17.876Z,56.32
2023-05-05T02:01:52.170Z,56.18
2023-05-05T02:04:27.405Z,56.36
2023-05-05T02:07:02.190Z,56.02
2023-05-05T02:09:36.356Z,56.37
2023-05-05T02:12:10.400Z,56.17
2023-05-05T02:14:44.256Z,56.19
2023-05-05T02:17:22.105Z,55.84
2023-05-05T02:19:56.004Z,56.19
2023-05-05T02:22:28.640Z,56.00
2023-05-05T02:25:01.108Z,56.10
2023-05-05T02:27:35.792Z,56.19
2023-05-05T02:30:13.864Z,56.24
2023-05-05T02:33:00.158Z,55.99
2023-05-05T02:35:39.202Z,55.77
2023-05-05T02:38:17.424Z,56.70
2023-05-05T02:40:55.955Z,56.20
2023-05-05T02:43:31.633Z,56.04
2023-05-05T02:46:04.437Z,56.78
2023-05-05T02:48:38.158Z,55.95
2023-05-05T02:51:10.528Z,56.04
2023-05-05T02:53:43.423Z,56.42
2023-05-05T02:56:42.808Z,56.25
2023-05-05T02:59:33.750Z,56.37
2023-05-05T03:02:32.374Z,56.50
2023-05-05T03:05:11.078Z,56.64
2023-05-05T03:08:08.516Z,56.28
2023-05-05T03:10:57.614Z,56.03
2023-05-05T03:13:31.436Z,56.35
2023-05-05T03:16:06.951Z,56.15
2023-05-05T03:18:42.473Z,56.23
2023-05-05T03:21:15.252Z,56.56
2023-05-05T03:23:48.869Z,56.52
2023-05-05T03:26:25.559Z,56.46
2023-05-05T03:28:57.848Z,56.47
2023-05-05T03:31:34.513Z,56.06
2023-05-05T03:34:08.341Z,56.61
2023-05-05T03:36:47.439Z,56.35
2023-05-05T03:39:21.453Z,56.23
2023-05-05T03:41:55.322Z,56.47
2023-05-05T03:44:30.519Z,56.18
2023-05-05T03:47:02.872Z,56.24
2023-05-05T03:49:38.053Z,56.25
2023-05-05T03:52:11.418Z,56.41
2023-05-05T03:54:46.211Z,56.28
2023-05-05T03:57:18.628Z,56.41
2023-05-05T03:59:51.218Z,56.40
2023-05-05T04:02:23.998Z,56.83
2023-05-05T04:04:56.513Z,55.92
2023-05-05T04:07:28.901Z,56.19
2023-05-05T04:10:01.483Z,55.80
2023-05-05T04:12:34.117Z,56.24
2023-05-05T04:15:07.181Z,56.11
2023-05-05T04:17:40.264Z,56.44
2023-05-05T04:20:13.213Z,56.58
2023-05-05T04:22:46.523Z,56.46
2023-05-05T04:25:19.951Z,56.43
2023-05-05T04:27:53.857Z,56.37
2023-05-05T04:30:26.756Z,56.25
2023-05-05T04:32:59.227Z,55.99
2023-05-05T04:35:31.891Z,56.52
2023-05-05T04:38:04.329Z,56.27
2023-05-05T04:40:41.368Z,55.79
2023-05-05T04:43:15.377Z,56.12
2023-05-05T04:45:57.076Z,56.52
2023-05-05T04:48:34.420Z,56.39
2023-05-05T04:51:07.247Z,56.58
2023-05-05T04:53:40.303Z,55.87
2023-05-05T04:56:14.209Z,56.28
2023-05-05T04:58:46.543Z,56.33
2023-05-05T05:01:19.852Z,56.10
2023-05-05T05:03:52.450Z,56.38
2023-05-05T05:06:24.811Z,56.19
2023-05-05T05:08:58.519Z,56.22
2023-05-05T05:11:30.927Z,56.18
2023-05-05T05:14:03.304Z,55.68
2023-05-05T05:16:35.780Z,55.87
2023-05-05T05:19:08.128Z,56.22
2023-05-05T05:21:40.804Z,56.03
2023-05-05T05:24:13.345Z,55.81
2023-05-05T05:26:45.884Z,56.30
2023-05-05T05:29:20.324Z,56.12
2023-05-05T05:31:53.590Z,55.83
2023-05-05T05:34:26.574Z,56.23
2023-05-05T05:36:59.063Z,56.65
2023-05-05T05:39:32.529Z,56.19
2023-05-05T05:42:05.313Z,56.27
2023-05-05T05:44:38.408Z,56.26
2023-05-05T05:47:11.145Z,56.06
2023-05-05T05:49:44.095Z,56.45
2023-05-05T05:52:16.882Z,56.79
2023-05-05T05:54:49.246Z,56.11
2023-05-05T05:57:24.600Z,56.21
2023-05-05T05:59:59.233Z,56.73
2023-05-05T06:02:34.471Z,56.39
2023-05-05T06:05:07.470Z,56.58
2023-05-05T06:07:40.091Z,56.82
2023-05-05T06:10:26.590Z,57.15
2023-05-05T06:13:05.316Z,56.77
2023-05-05T06:15:40.020Z,56.59
2023-05-05T06:18:12.985Z,57.12
2023-05-05T06:20:45.488Z,57.20
2023-05-05T06:23:20.253Z,57.13
2023-05-05T06:25:58.156Z,57.17
2023-05-05T06:28:30.522Z,56.66
2023-05-05T06:31:02.924Z,56.98
2023-05-05T06:33:35.381Z,57.25
2023-05-05T06:36:07.962Z,56.87
2023-05-05T06:38:40.393Z,57.28
2023-05-05T06:41:12.934Z,56.73
2023-05-05T06:43:45.507Z,57.11
2023-05-05T06:46:19.405Z,57.34
2023-05-05T06:48:52.229Z,57.27
2023-05-05T06:51:24.740Z,56.67
2023-05-05T06:53:58.305Z,56.91
2023-05-05T06:56:31.359Z,56.65
2023-05-05T06:59:03.764Z,56.97
2023-05-05T07:01:36.082Z,57.05
2023-05-05T07:04:08.581Z,56.76
2023-05-05T07:06:40.917Z,57.16
2023-05-05T07:09:14.775Z,57.06
2023-05-05T07:11:47.984Z,57.25
2023-05-05T07:14:22.072Z,57.10
2023-05-05T07:16:56.621Z,56.79
2023-05-05T07:19:29.321Z,57.31
2023-05-05T07:22:01.908Z,57.25
2023-05-05T07:24:34.390Z,57.38
2023-05-05T07:27:08.280Z,57.05
2023-05-05T07:29:40.754Z,57.40
2023-05-05T07:32:13.656Z,56.78
2023-05-05T07:34:46.197Z,57.00
2023-05-05T07:37:18.759Z,56.81
2023-05-05T07:39:51.080Z,56.64
2023-05-05T07:42:23.687Z,56.98
2023-05-05T07:44:56.095Z,56.69
2023-05-05T07:47:29.691Z,57.09
2023-05-05T07:50:02.406Z,56.67
2023-05-05T07:52:46.595Z,56.75
2023-05-05T07:55:22.823Z,56.93
2023-05-05T07:57:55.647Z,56.39
2023-05-05T08:00:28.076Z,57.13
2023-05-05T08:03:01.660Z,56.99
2023-05-05T08:05:34.119Z,57.08
2023-05-05T08:08:07.167Z,56.49
2023-05-05T08:10:39.588Z,56.55
2023-05-05T08:13:11.995Z,56.72
2023-05-05T08:15:45.236Z,56.75
2023-05-05T08:18:17.752Z,56.65
2023-05-05T08:20:50.541Z,56.48
2023-05-05T08:23:23.219Z,56.54
2023-05-05T08:25:57.144Z,57.14
2023-05-05T08:28:30.134Z,56.86
2023-05-05T08:31:06.762Z,56.46
2023-05-05T08:33:39.266Z,57.22
2023-05-05T08:36:11.688Z,56.60
2023-05-05T08:38:44.007Z,56.54
2023-05-05T08:41:18.895Z,57.10
2023-05-05T08:43:51.330Z,56.76
2023-05-05T08:46:26.871Z,56.71
2023-05-05T08:49:00.004Z,57.16
2023-05-05T08:51:41.390Z,56.69
2023-05-05T08:54:27.317Z,56.57
2023-05-05T08:57:04.720Z,56.94
2023-05-05T08:59:38.559Z,56.73
2023-05-05T09:02:12.336Z,56.63
2023-05-05T09:04:44.973Z,56.35
2023-05-05T09:07:17.783Z,56.66
2023-05-05T09:09:50.571Z,56.48
2023-05-05T09:12:23.441Z,56.20
2023-05-05T09:14:57.280Z,56.38
2023-05-05T09:17:31.714Z,56.36
2023-05-05T09:20:08.527Z,56.52
2023-05-05T09:22:44.318Z,55.96
2023-05-05T09:25:18.332Z,56.19
2023-05-05T09:27:50.856Z,56.36
2023-05-05T09:30:26.076Z,56.59
2023-05-05T09:32:59.893Z,55.91
2023-05-05T09:35:52.635Z,56.41
2023-05-05T09:38:25.603Z,56.37
2023-05-05T09:40:58.026Z,56.09
2023-05-05T09:43:30.430Z,56.20
2023-05-05T09:46:07.811Z,56.02
2023-05-05T09:48:40.377Z,56.44
2023-05-05T09:51:12.773Z,56.07
2023-05-05T09:53:45.139Z,56.26
2023-05-05T09:56:18.763Z,56.14
2023-05-05T09:59:07.714Z,55.71
2023-05-05T10:01:43.723Z,55.81
2023-05-05T10:04:28.189Z,55.89
2023-05-05T10:07:01.162Z,55.78
2023-05-05T10:09:36.442Z,55.91
2023-05-05T10:12:08.892Z,56.01
2023-05-05T10:14:41.915Z,55.83
2023-05-05T10:17:15.031Z,55.98
2023-05-05T10:19:48.141Z,56.20
2023-05-05T10:22:22.942Z,55.81
2023-05-05T10:25:09.685Z,56.09
2023-05-05T10:27:50.733Z,55.58
2023-05-05T10:30:25.995Z,55.94
2023-05-05T10:33:31.484Z,55.52
2023-05-05T10:36:06.732Z,55.54
2023-05-05T10:38:44.084Z,55.64
2023-05-05T10:41:19.266Z,55.92
2023-05-05T10:44:05.618Z,55.82
2023-05-05T10:46:42.520Z,55.49
2023-05-05T10:49:24.553Z,55.52
2023-05-05T10:52:23.642Z,55.59
2023-05-05T10:55:15.697Z,55.32
2023-05-05T10:57:53.699Z,55.83
2023-05-05T11:00:38.117Z,55.32
2023-05-05T11:03:16.693Z,55.15
2023-05-05T11:06:04.890Z,55.24
2023-05-05T11:08:41.796Z,55.17
2023-05-05T11:11:14.276Z,55.40
2023-05-05T11:13:47.383Z,55.10
2023-05-05T11:16:41.899Z,55.07
2023-05-05T11:19:43.960Z,55.09
2023-05-05T11:22:16.696Z,55.07
2023-05-05T11:24:49.180Z,55.23
2023-05-05T11:27:22.568Z,54.91
2023-05-05T11:30:08.668Z,55.30
2023-05-05T11:32:41.327Z,55.35
2023-05-05T11:35:15.525Z,55.19
2023-05-05T11:38:04.871Z,54.92
2023-05-05T11:40:41.494Z,54.83
2023-05-05T11:43:19.133Z,54.69
2023-05-05T11:46:13.476Z,54.66
2023-05-05T11:48:46.524Z,54.51
2023-05-05T11:51:19.037Z,54.78
2023-05-05T11:53:53.358Z,54.67
2023-05-05T11:56:25.964Z,54.95
2023-05-05T11:59:10.020Z,55.08
2023-05-05T12:01:42.873Z,55.10
2023-05-05T12:04:16.211Z,55.00
2023-05-05T12:06:49.144Z,54.79
2023-05-05T12:09:22.853Z,55.07
2023-05-05T12:11:58.714Z,54.72
2023-05-05T12:14:31.422Z,54.96
2023-05-05T12:17:07.808Z,54.39
2023-05-05T12:19:48.028Z,54.75
2023-05-05T12:22:21.515Z,55.06
2023-05-05T12:25:05.613Z,54.86
2023-05-05T12:27:38.792Z,54.52
2023-05-05T12:30:16.773Z,55.03
2023-05-05T12:32:50.283Z,55.17
2023-05-05T12:35:22.784Z,54.54
2023-05-05T12:37:55.437Z,55.15
2023-05-05T12:40:48.221Z,55.06
2023-05-05T12:43:31.879Z,54.95
2023-05-05T12:46:12.682Z,55.17
2023-05-05T12:48:48.345Z,55.36
2023-05-05T12:51:23.395Z,55.30
2023-05-05T12:54:11.622Z,55.95
2023-05-05T12:56:45.792Z,55.76
2023-05-05T12:59:21.134Z,56.18
2023-05-05T13:02:01.529Z,56.63
2023-05-05T13:04:34.549Z,56.53
2023-05-05T13:07:12.558Z,56.60
2023-05-05T13:09:45.078Z,56.86
2023-05-05T13:12:18.404Z,56.55
2023-05-05T13:14:50.820Z,57.07
2023-05-05T13:17:23.373Z,56.72
2023-05-05T13:19:56.006Z,56.86
2023-05-05T13:22:32.358Z,56.61
2023-05-05T13:25:05.210Z,56.57
2023-05-05T13:27:37.940Z,56.66
2023-05-05T13:30:10.681Z,56.77
2023-05-05T13:32:43.206Z,56.52
2023-05-05T13:35:16.514Z,56.32
2023-05-05T13:37:49.061Z,56.50
2023-05-05T13:40:22.284Z,56.18
2023-05-05T13:42:56.200Z,56.66
2023-05-05T13:45:28.615Z,56.29
2023-05-05T13:48:01.086Z,56.03
2023-05-05T13:50:33.566Z,55.84
2023-05-05T13:53:05.885Z,55.99
2023-05-05T13:55:38.315Z,55.47
2023-05-05T13:58:10.869Z,55.35
2023-05-05T14:00:43.186Z,54.45
2023-05-05T14:03:15.542Z,53.92
2023-05-05T14:05:47.828Z,53.77
2023-05-05T14:08:20.135Z,53.08
2023-05-05T14:10:53.452Z,52.67
2023-05-05T14:13:25.723Z,52.70
2023-05-05T14:15:58.517Z,52.23
2023-05-05T14:18:30.900Z,52.19
2023-05-05T14:21:04.778Z,52.16
2023-05-05T14:23:37.097Z,51.86
2023-05-05T14:26:09.660Z,51.89
2023-05-05T14:28:42.362Z,51.36
2023-05-05T14:31:15.133Z,51.44
2023-05-05T14:33:47.494Z,51.31
2023-05-05T14:36:19.897Z,51.26
2023-05-05T14:38:52.791Z,51.71
2023-05-05T14:41:25.133Z,51.96
2023-05-05T14:43:57.451Z,52.02
2023-05-05T14:46:31.274Z,52.33
2023-05-05T14:49:03.877Z,52.40
2023-05-05T14:51:36.278Z,52.99
2023-05-05T14:54:20.453Z,53.19
2023-05-05T14:57:06.871Z,53.26
2023-05-05T14:59:39.439Z,53.19
2023-05-05T15:02:20.691Z,53.06
2023-05-05T15:04:53.968Z,52.32
2023-05-05T15:07:29.272Z,52.72
2023-05-05T15:10:02.063Z,52.81
2023-05-05T15:12:34.577Z,52.82
2023-05-05T15:15:08.780Z,52.72
2023-05-05T15:17:41.796Z,52.88
2023-05-05T15:20:14.335Z,52.78
2023-05-05T15:22:49.561Z,52.74
2023-05-05T15:25:22.462Z,52.85
2023-05-05T15:27:54.761Z,52.88
2023-05-05T15:30:27.704Z,52.99
2023-05-05T15:33:00.699Z,52.91
2023-05-05T15:35:33.392Z,52.60
2023-05-05T15:38:07.318Z,52.59
2023-05-05T15:40:39.975Z,51.91
2023-05-05T15:43:12.782Z,51.92
2023-05-05T15:45:45.927Z,51.53
2023-05-05T15:48:18.260Z,51.57
2023-05-05T15:50:56.324Z,51.34
2023-05-05T15:53:30.385Z,51.42
2023-05-05T15:56:02.809Z,51.78
2023-05-05T15:58:36.739Z,51.82
2023-05-05T16:01:09.160Z,51.67
2023-05-05T16:03:41.784Z,51.86
2023-05-05T16:06:14.981Z,52.15
2023-05-05T16:08:49.024Z,51.49
2023-05-05T16:11:22.509Z,51.50
2023-05-05T16:13:55.015Z,51.51
2023-05-05T16:16:27.311Z,51.45
2023-05-05T16:18:59.614Z,51.57
2023-05-05T16:21:33.379Z,51.77
2023-05-05T16:24:06.120Z,52.00
2023-05-05T16:26:38.719Z,52.19
2023-05-05T16:29:11.892Z,52.07
2023-05-05T16:31:44.515Z,52.15
2023-05-05T16:34:17.183Z,51.96
2023-05-05T16:36:49.929Z,52.17
2023-05-05T16:39:22.450Z,52.23
2023-05-05T16:41:54.766Z,52.57
2023-05-05T16:44:27.175Z,52.32
2023-05-05T16:46:59.549Z,52.26
2023-05-05T16:49:31.891Z,52.48
2023-05-05T16:52:04.364Z,52.08
2023-05-05T16:54:36.746Z,52.15
2023-05-05T16:57:09.859Z,52.22
2023-05-05T16:59:42.254Z,51.94
2023-05-05T17:02:14.570Z,51.76
2023-05-05T17:04:47.103Z,51.91
2023-05-05T17:07:21.111Z,52.09
2023-05-05T17:09:53.842Z,51.96
2023-05-05T17:12:26.887Z,52.00
2023-05-05T17:14:59.879Z,52.10
2023-05-05T17:17:32.659Z,51.66
2023-05-05T17:20:05.837Z,52.04
2023-05-05T17:22:38.100Z,51.92
2023-05-05T17:25:10.773Z,52.07
2023-05-05T17:27:43.471Z,52.11
2023-05-05T17:30:16.022Z,51.63
2023-05-05T17:32:48.834Z,52.01
2023-05-05T17:35:21.441Z,51.70
2023-05-05T17:37:54.134Z,51.90
2023-05-05T17:40:26.612Z,51.77
2023-05-05T17:42:59.252Z,51.47
2023-05-05T17:45:31.803Z,51.71
2023-05-05T17:48:04.365Z,51.76
2023-05-05T17:50:36.834Z,51.71
2023-05-05T17:53:11.201Z,51.83
2023-05-05T17:55:45.953Z,51.43
2023-05-05T17:58:18.371Z,51.64
2023-05-05T18:00:51.003Z,51.30
2023-05-05T18:03:23.981Z,51.52
2023-05-05T18:05:56.359Z,51.41
2023-05-05T18:08:28.558Z,51.73
2023-05-05T18:11:01.880Z,51.39
2023-05-05T18:13:34.202Z,51.64
2023-05-05T18:16:06.934Z,51.23
2023-05-05T18:21:12.598Z,51.42
2023-05-05T18:23:46.016Z,51.53
2023-05-05T18:26:18.540Z,51.32
2023-05-05T18:28:50.848Z,51.28
2023-05-05T18:31:23.172Z,51.60
2023-05-05T18:33:56.181Z,51.75
2023-05-05T18:36:28.723Z,51.59
2023-05-05T18:39:01.892Z,51.74
2023-05-05T18:41:35.733Z,51.87
2023-05-05T18:44:08.214Z,52.02
2023-05-05T18:46:43.183Z,52.02
2023-05-05T18:49:15.601Z,52.09
2023-05-05T18:51:47.945Z,52.21
2023-05-05T18:54:21.986Z,52.29
2023-05-05T18:56:54.568Z,52.24
2023-05-05T18:59:27.374Z,52.35
2023-05-05T19:01:59.772Z,52.56
2023-05-05T19:04:33.009Z,52.74
2023-05-05T19:07:05.383Z,52.83
2023-05-05T19:09:37.825Z,52.59
2023-05-05T19:12:11.264Z,52.96
2023-05-05T19:14:43.651Z,53.36
2023-05-05T19:17:16.424Z,53.25
2023-05-05T19:19:48.986Z,53.33
2023-05-05T19:22:23.580Z,53.49
2023-05-05T19:24:56.191Z,53.42
2023-05-05T19:27:28.952Z,53.69
2023-05-05T19:30:02.181Z,53.49
2023-05-05T19:32:35.051Z,53.73
2023-05-05T19:35:10.754Z,53.71
2023-05-05T19:37:44.684Z,53.87
2023-05-05T19:40:17.609Z,53.84
2023-05-05T19:42:50.696Z,53.69
2023-05-05T19:45:23.562Z,54.16
2023-05-05T19:47:56.846Z,53.90
2023-05-05T19:50:30.839Z,54.26
2023-05-05T19:53:05.311Z,54.21
2023-05-05T19:55:38.353Z,54.17
2023-05-05T19:58:10.911Z,54.12
2023-05-05T20:00:43.327Z,54.19
2023-05-05T20:03:16.440Z,54.29
2023-05-05T20:05:49.102Z,54.46
2023-05-05T20:08:22.328Z,54.39
2023-05-05T20:10:58.052Z,54.35
2023-05-05T20:13:30.489Z,54.39
2023-05-05T20:16:05.068Z,54.41
2023-05-05T20:18:37.713Z,54.26
2023-05-05T20:21:10.295Z,54.72
2023-05-05T20:23:44.250Z,54.80
2023-05-05T20:26:17.088Z,54.72
2023-05-05T20:28:49.899Z,54.81
2023-05-05T20:31:23.066Z,54.97
2023-05-05T20:33:55.465Z,55.00
2023-05-05T20:36:27.933Z,54.92
2023-05-05T20:39:00.468Z,55.22
2023-05-05T20:41:32.892Z,55.04
2023-05-05T20:44:05.351Z,55.39
2023-05-05T20:46:37.791Z,55.24
2023-05-05T20:49:11.230Z,55.47
2023-05-05T20:51:46.930Z,55.66
2023-05-05T20:54:19.363Z,55.76
2023-05-05T20:56:53.206Z,55.59
2023-05-05T20:59:28.045Z,55.64
2023-05-05T21:02:00.576Z,56.23
2023-05-05T21:04:33.227Z,55.89
2023-05-05T21:07:05.667Z,56.06
2023-05-05T21:09:38.069Z,55.95
2023-05-05T21:12:10.330Z,56.32
2023-05-05T21:14:45.063Z,56.47
2023-05-05T21:17:17.595Z,56.45
2023-05-05T21:19:51.176Z,56.49
2023-05-05T21:22:23.790Z,56.47
2023-05-05T21:25:12.053Z,56.73
2023-05-05T21:27:44.964Z,56.76
2023-05-05T21:30:17.735Z,56.64
2023-05-05T21:32:51.388Z,56.73
2023-05-05T21:35:23.975Z,56.95
2023-05-05T21:37:56.356Z,57.00
2023-05-05T21:40:28.757Z,56.62
2023-05-05T21:43:01.714Z,56.66
2023-05-05T21:45:34.075Z,56.82
2023-05-05T21:48:06.835Z,57.02
2023-05-05T21:50:39.278Z,56.78
2023-05-05T21:53:11.935Z,56.99
2023-05-05T21:55:44.733Z,56.89
2023-05-05T21:58:17.498Z,56.99
2023-05-05T22:00:50.057Z,57.05
2023-05-05T22:03:22.695Z,57.10
2023-05-05T22:05:55.748Z,57.26
2023-05-05T22:08:28.189Z,56.81
2023-05-05T22:11:00.645Z,57.29
2023-05-05T22:13:33.559Z,57.18
2023-05-05T22:16:09.824Z,57.25
2023-05-05T22:18:42.573Z,57.56
2023-05-05T22:21:16.217Z,57.37
2023-05-05T22:23:48.661Z,57.30
2023-05-05T22:26:20.990Z,57.62
2023-05-05T22:28:53.482Z,57.47
2023-05-05T22:31:26.221Z,57.65
2023-05-05T22:33:58.728Z,57.31
2023-05-05T22:36:31.869Z,57.65
2023-05-05T22:39:05.573Z,57.46
2023-05-05T22:41:38.441Z,57.39
2023-05-05T22:44:11.860Z,57.99
2023-05-05T22:46:44.413Z,57.73
2023-05-05T22:49:16.878Z,57.79
2023-05-05T22:51:51.692Z,57.85
2023-05-05T22:54:24.032Z,57.72
2023-05-05T22:56:56.429Z,57.96
2023-05-05T22:59:28.964Z,57.61
2023-05-05T23:02:01.336Z,57.59
2023-05-05T23:04:33.726Z,57.83
2023-05-05T23:07:06.127Z,57.86
2023-05-05T23:09:38.700Z,57.74
2023-05-05T23:12:11.027Z,58.06
2023-05-05T23:14:44.139Z,57.82
2023-05-05T23:17:16.602Z,57.93
2023-05-05T23:19:50.468Z,58.03
2023-05-05T23:22:23.129Z,57.92
2023-05-05T23:24:56.028Z,57.75
2023-05-05T23:27:31.582Z,58.01
2023-05-05T23:30:04.369Z,58.17
2023-05-05T23:32:36.768Z,58.01
2023-05-05T23:35:09.785Z,58.04
2023-05-05T23:37:42.234Z,58.02
2023-05-05T23:40:14.535Z,57.83
2023-05-05T23:42:46.921Z,58.04
2023-05-05T23:45:19.731Z,58.14
2023-05-05T23:47:52.464Z,57.99
2023-05-05T23:50:25.864Z,58.06
2023-05-05T23:52:58.281Z,58.05
2023-05-05T23:55:30.897Z,57.98
2023-05-05T23:58:03.327Z,58.39
